Forside
METAR-TAF:

METAR-TAF

Lufthavne :

Nordholz, Tyskland

Breddekreds: 53-46N, længdekreds: 008-40E, højde: 23 m

Aktuelle vejr

Denne rapport blev lavet for 1 time og 10 minutter siden, kl. 23:20 UTC
Vind 7 kt fra vest
Temperatur 5°C
Fugtighed 93%
Tryk 1031 hPa
Sigt: 8000 m
Nogle få skyer i en højde af 500 ft
Brudte skyer i en højde af 1200 ft
let regn, finregn

METAR: ETMN 222320Z 28007KT 8000 -RADZ FEW005 BKN012 05/04 Q1031 GRN

Tid: 01:30 (00:30 UTC)


TAF: fraværende

Vejrobservationer og prognoser fra mere end 4000 lufthavne (METAR og TAF).

De gule og røde prikker repræsenterer de meteorologiske stationer.

Flyt musen over at se navnet på stationen.

Så klik over at se vejr observationer og prognoser.

At skifte det kort: Klik på de grønne knapper med et sort kors for at zoome ind; på den grønne knap med en bindestreg for at zoome ud; eller på de grønne pile for tilstødende kort.


METAR-TAF: